Terminal Aerodrome Forecast
Issued by NWS

Home | Current Version | Previous Version | Text Only | Print | Product List | Glossary Off
Versions: 1 2 3 4 5 6 7 8 9 10 11 12 13 14 15

682
FTUS43 KICT 281421 AAA
TAFCNU
TAF AMD
KCNU 281421Z 2814/2912 01011G19KT P6SM SKC
     FM290000 36005KT P6SM SKC=

USA.gov is the U.S. government's official web portal to all federal, state and local government web resources and services.